Silver Wind — C6FG2 — position and weather

sailwx.info

Track history (hours):
 
Tides and Currents Weather Stations Pressure Air Temp Water Temp Dewpoint Dewpoint Depression Visibility Wind Speed Wind Dir Waves Ship Positions

Silver Wind

Operator: V Ships Leisure

Last reported at 2020-Jan-17 03:43 UTC. Time now 2020-Jan-18 20:38 UTC.
Position N 25°24' W 080°02'.

Length 156 m; draft 5.7 m.

Type: Passenger vessel. MMSI: 308814000.

Date/timePositionNaut miles runAvg speedWind from/ knotsBaromVisibWave heightAir tempDewpointWater temp
2020-Jan-17 03:43N 25°24' W 080°02'1714.0
2020-Jan-17 02:30N 25°40' W 079°58'2612.9
2020-Jan-17 00:30N 26°05' W 080°05'2 0.3
2020-Jan-16 17:30N 26°05' W 080°07'0 0.0
2020-Jan-16 17:01N 26°05' W 080°07'0 0.0
2020-Jan-16 14:01N 26°05' W 080°07'0 0.0
2020-Jan-16 13:00N 26°05' W 080°07'0 0.0
2020-Jan-16 12:31N 26°05' W 080°07'3 5.8
2020-Jan-16 12:00N 26°06' W 080°04'9 9.4
2020-Jan-16 11:00N 25°58' W 079°58'1711.3
2020-Jan-16 09:30N 25°41' W 079°54'1515.2
2020-Jan-16 08:30N 25°26' W 079°51'  
2020-Jan-12 02:53N 17°02' W 062°41'6 0.2
2020-Jan-10 15:30N 17°08' W 062°39'14 4.0
2020-Jan-10 12:05N 17°09' W 062°53'2915.2
2020-Jan-10 10:12N 17°09' W 063°23'13014.9
2020-Jan-10 01:30N 18°23' W 065°16'815.9
2020-Jan-10 01:00N 18°24' W 065°24'4214.7
2020-Jan-09 22:09N 18°29' W 066°08'2 0.5
2020-Jan-09 18:58N 18°28' W 066°07'0 0.0
2020-Jan-09 17:28N 18°28' W 066°07'0 0.0
2020-Jan-09 14:25N 18°28' W 066°07'6 1.2
2020-Jan-09 09:30N 18°33' W 066°04'4 8.3
2020-Jan-09 08:59N 18°36' W 066°01'39 7.0
2020-Jan-09 03:30N 18°36' W 065°20'6 6.4
2020-Jan-09 02:30N 18°35' W 065°13'103 4.9
2020-Jan-08 05:31N 17°54' W 063°33'713.7
2020-Jan-08 04:59N 17°51' W 063°27'2013.6
2020-Jan-08 03:30N 17°40' W 063°09'2113.8
2020-Jan-08 01:58N 17°22' W 062°58'13 0.8
2020-Jan-07 10:22N 17°15' W 062°46'20 4.8
2020-Jan-07 06:09N 17°34' W 062°53'15 6.2
2020-Jan-07 03:44N 17°49' W 062°54'  
Track history (hours):
 
Tides and Currents Weather Stations Pressure Air Temp Water Temp Dewpoint Dewpoint Depression Visibility Wind Speed Wind Dir Waves Ship Positions

Silver Wind

Operator: V Ships Leisure

Last reported at 2020-Jan-17 03:43 UTC. Time now 2020-Jan-18 20:38 UTC.
Position N 25°24' W 080°02'.

Length 156 m; draft 5.7 m.

Type: Passenger vessel. MMSI: 308814000.

Date/timePositionNaut miles runAvg speedWind from/ knotsBaromVisibWave heightAir tempDewpointWater temp
2020-Jan-17 03:43N 25°24' W 080°02'1714.0
2020-Jan-17 02:30N 25°40' W 079°58'2612.9
2020-Jan-17 00:30N 26°05' W 080°05'2 0.3
2020-Jan-16 17:30N 26°05' W 080°07'0 0.0
2020-Jan-16 17:01N 26°05' W 080°07'0 0.0
2020-Jan-16 14:01N 26°05' W 080°07'0 0.0
2020-Jan-16 13:00N 26°05' W 080°07'0 0.0
2020-Jan-16 12:31N 26°05' W 080°07'3 5.8
2020-Jan-16 12:00N 26°06' W 080°04'9 9.4
2020-Jan-16 11:00N 25°58' W 079°58'1711.3
2020-Jan-16 09:30N 25°41' W 079°54'1515.2
2020-Jan-16 08:30N 25°26' W 079°51'  
2020-Jan-12 02:53N 17°02' W 062°41'6 0.2
2020-Jan-10 15:30N 17°08' W 062°39'14 4.0
2020-Jan-10 12:05N 17°09' W 062°53'2915.2
2020-Jan-10 10:12N 17°09' W 063°23'13014.9
2020-Jan-10 01:30N 18°23' W 065°16'815.9
2020-Jan-10 01:00N 18°24' W 065°24'4214.7
2020-Jan-09 22:09N 18°29' W 066°08'2 0.5
2020-Jan-09 18:58N 18°28' W 066°07'0 0.0
2020-Jan-09 17:28N 18°28' W 066°07'0 0.0
2020-Jan-09 14:25N 18°28' W 066°07'6 1.2
2020-Jan-09 09:30N 18°33' W 066°04'4 8.3
2020-Jan-09 08:59N 18°36' W 066°01'39 7.0
2020-Jan-09 03:30N 18°36' W 065°20'6 6.4
2020-Jan-09 02:30N 18°35' W 065°13'103 4.9
2020-Jan-08 05:31N 17°54' W 063°33'713.7
2020-Jan-08 04:59N 17°51' W 063°27'2013.6
2020-Jan-08 03:30N 17°40' W 063°09'2113.8
2020-Jan-08 01:58N 17°22' W 062°58'13 0.8
2020-Jan-07 10:22N 17°15' W 062°46'20 4.8
2020-Jan-07 06:09N 17°34' W 062°53'15 6.2
2020-Jan-07 03:44N 17°49' W 062°54'  

Dump ship's entire track history